createdAt,value
2019-02-10T00:01:24.833Z,6.05
2019-02-10T00:03:53.893Z,6.02
2019-02-10T00:06:24.859Z,6.00
2019-02-10T00:08:54.565Z,5.95
2019-02-10T00:11:24.075Z,5.93
2019-02-10T00:13:53.552Z,5.90
2019-02-10T00:16:23.086Z,5.87
2019-02-10T00:18:52.115Z,5.89
2019-02-10T00:21:21.169Z,5.88
2019-02-10T00:23:50.190Z,5.88
2019-02-10T00:26:19.551Z,5.95
2019-02-10T00:28:48.594Z,6.02
2019-02-10T00:31:17.610Z,6.04
2019-02-10T00:33:46.626Z,6.00
2019-02-10T00:36:15.682Z,6.00
2019-02-10T00:38:44.624Z,5.99
2019-02-10T00:41:13.998Z,5.94
2019-02-10T00:43:43.062Z,5.89
2019-02-10T00:46:12.086Z,5.87
2019-02-10T00:48:41.140Z,5.84
2019-02-10T00:51:10.196Z,5.80
2019-02-10T00:53:39.129Z,5.79
2019-02-10T00:56:08.495Z,5.77
2019-02-10T00:58:37.506Z,5.76
2019-02-10T01:01:06.501Z,5.74
2019-02-10T01:03:35.522Z,5.73
2019-02-10T01:06:04.535Z,5.75
2019-02-10T01:08:33.577Z,5.75
2019-02-10T01:11:02.631Z,5.78
2019-02-10T01:13:31.716Z,5.76
2019-02-10T01:16:00.731Z,5.74
2019-02-10T01:18:29.790Z,5.77
2019-02-10T01:20:58.798Z,5.78
2019-02-10T01:23:27.848Z,5.81
2019-02-10T01:25:57.040Z,5.92
2019-02-10T01:28:26.097Z,6.00
2019-02-10T01:30:55.165Z,6.15
2019-02-10T01:33:24.476Z,6.24
2019-02-10T01:35:53.840Z,6.37
2019-02-10T01:38:22.890Z,6.49
2019-02-10T01:40:52.279Z,6.57
2019-02-10T01:43:21.597Z,6.66
2019-02-10T01:45:50.616Z,6.72
2019-02-10T01:48:19.628Z,6.75
2019-02-10T01:50:48.686Z,6.79
2019-02-10T01:53:17.716Z,6.77
2019-02-10T01:55:46.766Z,6.81
2019-02-10T01:58:15.706Z,6.92
2019-02-10T02:00:45.065Z,6.97
2019-02-10T02:03:14.074Z,7.06
2019-02-10T02:05:43.208Z,7.10
2019-02-10T02:08:12.537Z,7.14
2019-02-10T02:10:41.606Z,7.13
2019-02-10T02:13:10.625Z,7.24
2019-02-10T02:15:39.638Z,7.25
2019-02-10T02:18:08.689Z,7.29
2019-02-10T02:20:37.697Z,7.34
2019-02-10T02:23:06.670Z,7.36
2019-02-10T02:25:35.739Z,7.42
2019-02-10T02:28:04.751Z,7.38
2019-02-10T02:30:33.788Z,7.42
2019-02-10T02:33:02.827Z,7.44
2019-02-10T02:35:31.841Z,7.49
2019-02-10T02:38:00.891Z,7.49
2019-02-10T02:40:30.217Z,7.49
2019-02-10T02:42:59.194Z,7.50
2019-02-10T02:45:28.247Z,7.46
2019-02-10T02:47:57.289Z,7.49
2019-02-10T02:50:26.709Z,7.47
2019-02-10T02:52:55.787Z,7.50
2019-02-10T02:55:25.147Z,7.49
2019-02-10T02:57:54.166Z,7.50
2019-02-10T03:00:23.098Z,7.47
2019-02-10T03:02:52.158Z,7.46
2019-02-10T03:05:21.168Z,7.50
2019-02-10T03:07:50.164Z,7.54
2019-02-10T03:10:19.157Z,7.52
2019-02-10T03:12:48.188Z,7.56
2019-02-10T03:15:17.184Z,7.53
2019-02-10T03:17:46.229Z,7.53
2019-02-10T03:20:15.240Z,7.53
2019-02-10T03:22:44.293Z,7.48
2019-02-10T03:25:13.405Z,7.49
2019-02-10T03:27:42.455Z,7.47
2019-02-10T03:30:11.984Z,7.45
2019-02-10T03:32:41.045Z,7.50
2019-02-10T03:35:10.212Z,7.49
2019-02-10T03:37:39.224Z,7.50
2019-02-10T03:40:08.233Z,7.46
2019-02-10T03:42:37.310Z,7.42
2019-02-10T03:45:06.624Z,7.39
2019-02-10T03:47:35.926Z,7.39
2019-02-10T03:50:05.433Z,7.36
2019-02-10T03:52:34.488Z,7.40
2019-02-10T03:55:03.496Z,7.44
2019-02-10T03:57:32.681Z,7.49
2019-02-10T04:00:02.086Z,7.46
2019-02-10T04:02:31.026Z,7.44
2019-02-10T04:05:00.035Z,7.45
2019-02-10T04:07:35.962Z,7.47
2019-02-10T04:09:59.766Z,7.43
2019-02-10T04:12:28.781Z,7.45
2019-02-10T04:14:57.756Z,7.45
2019-02-10T04:17:26.700Z,7.34
2019-02-10T04:19:56.038Z,7.28
2019-02-10T04:22:25.038Z,7.19
2019-02-10T04:24:54.381Z,7.13
2019-02-10T04:27:23.451Z,7.12
2019-02-10T04:29:52.798Z,7.15
2019-02-10T04:32:21.848Z,7.12
2019-02-10T04:34:51.038Z,7.13
2019-02-10T04:37:20.085Z,7.18
2019-02-10T04:39:49.120Z,7.13
2019-02-10T04:42:18.162Z,7.17
2019-02-10T04:44:48.930Z,7.18
2019-02-10T04:47:17.884Z,7.14
2019-02-10T04:49:47.240Z,7.15
2019-02-10T04:52:16.252Z,7.17
2019-02-10T04:54:45.846Z,7.17
2019-02-10T04:57:14.775Z,7.17
2019-02-10T04:59:43.818Z,7.13
2019-02-10T05:02:12.866Z,7.18
2019-02-10T05:04:41.885Z,7.22
2019-02-10T05:07:10.943Z,7.20
2019-02-10T05:09:39.953Z,7.20
2019-02-10T05:12:08.973Z,7.25
2019-02-10T05:14:38.404Z,7.24
2019-02-10T05:17:07.466Z,7.19
2019-02-10T05:19:36.446Z,7.20
2019-02-10T05:22:05.503Z,7.22
2019-02-10T05:24:34.511Z,7.15
2019-02-10T05:27:03.449Z,7.17
2019-02-10T05:29:32.495Z,7.12
2019-02-10T05:32:01.574Z,7.07
2019-02-10T05:34:30.582Z,7.06
2019-02-10T05:36:59.619Z,7.02
2019-02-10T05:39:28.682Z,6.96
2019-02-10T05:41:57.689Z,6.98
2019-02-10T05:44:26.697Z,6.96
2019-02-10T05:46:55.677Z,6.93
2019-02-10T05:49:25.050Z,6.95
2019-02-10T05:51:53.988Z,6.93
2019-02-10T05:54:23.057Z,6.94
2019-02-10T05:56:52.102Z,6.94
2019-02-10T05:59:21.041Z,6.95
2019-02-10T06:02:22.236Z,6.91
2019-02-10T06:04:51.252Z,6.91
2019-02-10T06:07:20.296Z,6.98
2019-02-10T06:09:49.238Z,7.02
2019-02-10T06:12:18.928Z,6.98
2019-02-10T06:14:47.904Z,6.98
2019-02-10T06:17:18.454Z,6.97
2019-02-10T06:19:47.484Z,7.00
2019-02-10T06:22:16.550Z,7.02
2019-02-10T06:24:45.481Z,7.03
2019-02-10T06:27:15.314Z,7.04
2019-02-10T06:29:45.170Z,7.03
2019-02-10T06:32:14.581Z,6.99
2019-02-10T06:34:44.237Z,6.99
2019-02-10T06:37:13.110Z,6.97
2019-02-10T06:39:42.074Z,6.97
2019-02-10T06:42:11.128Z,6.99
2019-02-10T06:44:39.983Z,7.00
2019-02-10T06:47:09.028Z,7.03
2019-02-10T06:49:38.109Z,7.01
2019-02-10T06:52:07.116Z,7.08
2019-02-10T06:54:37.973Z,7.05
2019-02-10T06:57:06.977Z,7.06
2019-02-10T06:59:44.204Z,7.06
2019-02-10T07:02:31.295Z,7.09
2019-02-10T07:05:00.309Z,7.08
2019-02-10T07:07:29.393Z,7.08
2019-02-10T07:09:58.419Z,7.15
2019-02-10T07:12:50.197Z,7.19
2019-02-10T07:16:05.550Z,7.21
2019-02-10T07:19:10.518Z,7.23
2019-02-10T07:21:43.496Z,7.25
2019-02-10T07:24:52.900Z,7.18
2019-02-10T07:27:28.048Z,7.27
2019-02-10T07:30:37.253Z,7.30
2019-02-10T07:33:21.257Z,7.33
2019-02-10T07:36:16.295Z,7.34
2019-02-10T07:39:11.334Z,7.36
2019-02-10T07:41:59.851Z,7.39
2019-02-10T07:44:51.985Z,7.40
2019-02-10T07:47:54.711Z,7.46
2019-02-10T07:50:49.139Z,7.43
2019-02-10T07:53:52.269Z,7.38
2019-02-10T07:57:01.905Z,7.38
2019-02-10T08:00:13.671Z,7.38
2019-02-10T08:03:41.841Z,7.42
2019-02-10T08:06:55.984Z,7.46
2019-02-10T08:10:16.080Z,7.48
2019-02-10T08:13:33.173Z,7.47
2019-02-10T08:16:35.619Z,7.57
2019-02-10T08:19:36.675Z,7.60
2019-02-10T08:22:59.083Z,7.62
2019-02-10T08:26:00.793Z,7.64
2019-02-10T08:29:11.390Z,7.70
2019-02-10T08:32:32.672Z,7.75
2019-02-10T08:35:36.027Z,7.78
2019-02-10T08:38:54.404Z,7.77
2019-02-10T08:41:49.374Z,7.76
2019-02-10T08:44:44.424Z,7.77
2019-02-10T08:47:36.923Z,7.72
2019-02-10T08:50:19.279Z,7.80
2019-02-10T08:52:55.713Z,7.70
2019-02-10T08:55:24.775Z,7.80
2019-02-10T08:57:53.894Z,7.74
2019-02-10T09:00:22.936Z,7.77
2019-02-10T09:02:51.989Z,7.78
2019-02-10T09:05:21.002Z,7.79
2019-02-10T09:07:50.046Z,7.85
2019-02-10T09:10:19.158Z,7.90
2019-02-10T09:12:48.168Z,7.89
2019-02-10T09:15:17.223Z,7.94
2019-02-10T09:17:46.258Z,7.93
2019-02-10T09:20:15.266Z,7.91
2019-02-10T09:22:44.435Z,7.93
2019-02-10T09:25:13.710Z,7.93
2019-02-10T09:27:42.716Z,7.97
2019-02-10T09:30:12.741Z,7.95
2019-02-10T09:32:41.761Z,7.93
2019-02-10T09:35:11.020Z,7.92
2019-02-10T09:37:40.061Z,7.91
2019-02-10T09:40:10.095Z,7.90
2019-02-10T09:42:39.125Z,7.91
2019-02-10T09:45:10.739Z,7.97
2019-02-10T09:47:39.777Z,7.96
2019-02-10T09:50:11.653Z,7.96
2019-02-10T09:52:40.857Z,8.02
2019-02-10T09:55:09.888Z,8.02
2019-02-10T09:57:38.743Z,8.20
2019-02-10T10:00:10.121Z,8.26
2019-02-10T10:02:39.185Z,8.19
2019-02-10T10:05:09.247Z,8.15
2019-02-10T10:07:38.262Z,8.22
2019-02-10T10:10:08.515Z,8.15
2019-02-10T10:12:37.561Z,8.10
2019-02-10T10:15:07.963Z,8.07
2019-02-10T10:17:37.011Z,8.05
2019-02-10T10:20:07.461Z,8.02
2019-02-10T10:22:36.512Z,8.03
2019-02-10T10:25:05.749Z,8.04
2019-02-10T10:27:34.809Z,8.08
2019-02-10T10:30:03.959Z,8.04
2019-02-10T10:32:32.969Z,8.04
2019-02-10T10:35:02.025Z,8.04
2019-02-10T10:37:31.416Z,8.12
2019-02-10T10:40:00.397Z,8.08
2019-02-10T10:42:29.463Z,8.14
2019-02-10T10:44:58.467Z,8.13
2019-02-10T10:47:27.480Z,8.14
2019-02-10T10:49:56.565Z,8.11
2019-02-10T10:52:25.637Z,8.00
2019-02-10T10:54:54.628Z,7.96
2019-02-10T10:57:25.233Z,7.90
2019-02-10T10:59:54.309Z,7.86
2019-02-10T11:02:23.663Z,7.84
2019-02-10T11:04:52.716Z,7.80
2019-02-10T11:07:21.768Z,7.68
2019-02-10T11:09:50.779Z,7.62
2019-02-10T11:12:19.786Z,7.64
2019-02-10T11:14:48.848Z,7.65
2019-02-10T11:17:17.865Z,7.69
2019-02-10T11:19:46.875Z,7.73
2019-02-10T11:22:15.924Z,7.69
2019-02-10T11:24:44.893Z,7.70
2019-02-10T11:27:13.917Z,7.71
2019-02-10T11:29:42.811Z,7.75
2019-02-10T11:32:12.055Z,7.68
2019-02-10T11:34:46.078Z,7.65
2019-02-10T11:37:11.815Z,7.67
2019-02-10T11:39:43.730Z,7.70
2019-02-10T11:42:11.561Z,7.64
2019-02-10T11:44:40.601Z,7.70
2019-02-10T11:47:09.565Z,7.76
2019-02-10T11:49:39.712Z,7.56
2019-02-10T11:52:08.721Z,7.52
2019-02-10T11:54:37.780Z,7.47
2019-02-10T11:57:06.883Z,7.40
2019-02-10T11:59:35.819Z,7.32
2019-02-10T12:02:05.109Z,7.44
2019-02-10T12:04:34.167Z,7.60
2019-02-10T12:07:03.182Z,7.50
2019-02-10T12:09:32.259Z,7.57
2019-02-10T12:12:01.268Z,7.60
2019-02-10T12:14:30.332Z,7.56
2019-02-10T12:16:59.674Z,7.51
2019-02-10T12:19:28.739Z,7.64
2019-02-10T12:21:57.744Z,7.72
2019-02-10T12:24:26.793Z,7.82
2019-02-10T12:26:55.873Z,7.94
2019-02-10T12:29:24.893Z,7.96
2019-02-10T12:31:53.905Z,7.92
2019-02-10T12:34:22.956Z,7.86
2019-02-10T12:36:51.929Z,7.78
2019-02-10T12:39:20.977Z,7.74
2019-02-10T12:41:50.024Z,7.71
2019-02-10T12:44:19.031Z,7.61
2019-02-10T12:46:48.389Z,7.64
2019-02-10T12:49:17.441Z,7.46
2019-02-10T12:51:46.384Z,7.39
2019-02-10T12:54:15.432Z,7.43
2019-02-10T12:56:44.485Z,7.31
2019-02-10T12:59:14.404Z,7.26
2019-02-10T13:01:43.461Z,7.10
2019-02-10T13:04:12.601Z,7.08
2019-02-10T13:06:41.638Z,6.99
2019-02-10T13:09:12.259Z,6.95
2019-02-10T13:11:41.347Z,6.85
2019-02-10T13:14:10.420Z,6.87
2019-02-10T13:16:39.448Z,6.87
2019-02-10T13:19:08.505Z,6.86
2019-02-10T13:21:37.552Z,6.82
2019-02-10T13:24:06.573Z,6.82
2019-02-10T13:26:35.962Z,6.82
2019-02-10T13:29:04.953Z,6.78
2019-02-10T13:31:33.904Z,6.84
2019-02-10T13:34:02.963Z,6.85
2019-02-10T13:36:31.973Z,6.78
2019-02-10T13:39:00.991Z,6.69
2019-02-10T13:41:37.904Z,6.72
2019-02-10T13:44:07.347Z,6.73
2019-02-10T13:46:36.400Z,6.76
2019-02-10T13:49:05.469Z,6.75
2019-02-10T13:51:34.516Z,6.68
2019-02-10T13:54:03.656Z,6.64
2019-02-10T13:56:32.830Z,6.66
2019-02-10T13:59:01.835Z,6.67
2019-02-10T14:01:30.702Z,6.65
2019-02-10T14:03:59.747Z,6.53
2019-02-10T14:06:28.752Z,6.52
2019-02-10T14:08:57.833Z,6.47
2019-02-10T14:11:26.881Z,6.37
2019-02-10T14:13:55.888Z,6.31
2019-02-10T14:16:24.949Z,6.31
2019-02-10T14:18:53.901Z,6.20
2019-02-10T14:21:22.948Z,6.14
2019-02-10T14:23:51.937Z,6.10
2019-02-10T14:26:21.267Z,6.15
2019-02-10T14:28:50.277Z,6.03
2019-02-10T14:31:19.289Z,5.97
2019-02-10T14:33:48.260Z,5.95
2019-02-10T14:36:17.198Z,5.98
2019-02-10T14:38:46.190Z,5.94
2019-02-10T14:41:15.213Z,5.81
2019-02-10T14:43:44.590Z,5.81
2019-02-10T14:46:13.657Z,5.82
2019-02-10T14:48:42.714Z,5.80
2019-02-10T14:51:11.778Z,5.75
2019-02-10T14:53:40.783Z,5.80
2019-02-10T14:56:09.820Z,5.70
2019-02-10T14:58:43.131Z,5.71
2019-02-10T15:01:09.610Z,5.72
2019-02-10T15:03:38.701Z,5.60
2019-02-10T15:06:07.749Z,5.54
2019-02-10T15:08:36.702Z,5.51
2019-02-10T15:11:05.766Z,5.53
2019-02-10T15:13:34.836Z,5.47
2019-02-10T15:16:03.767Z,5.45
2019-02-10T15:18:32.805Z,5.40
2019-02-10T15:21:02.108Z,5.42
2019-02-10T15:23:31.056Z,5.39
2019-02-10T15:26:00.105Z,5.43
2019-02-10T15:28:29.157Z,5.35
2019-02-10T15:30:58.217Z,5.33
2019-02-10T15:33:27.225Z,5.36
2019-02-10T15:35:56.297Z,5.28
2019-02-10T15:38:25.359Z,5.24
2019-02-10T15:40:54.472Z,5.19
2019-02-10T15:43:23.487Z,5.10
2019-02-10T15:45:52.799Z,5.15
2019-02-10T15:48:21.856Z,4.98
2019-02-10T15:50:51.137Z,4.90
2019-02-10T15:53:20.470Z,4.89
2019-02-10T15:55:49.545Z,4.93
2019-02-10T15:58:18.858Z,4.89
2019-02-10T16:00:47.868Z,4.86
2019-02-10T16:03:16.917Z,4.84
2019-02-10T16:05:45.989Z,4.94
2019-02-10T16:08:15.046Z,4.87
2019-02-10T16:10:44.076Z,4.82
2019-02-10T16:13:13.222Z,4.72
2019-02-10T16:15:42.369Z,4.66
2019-02-10T16:18:11.712Z,4.56
2019-02-10T16:20:40.760Z,4.55
2019-02-10T16:23:09.818Z,4.53
2019-02-10T16:25:38.846Z,4.47
2019-02-10T16:28:07.856Z,4.54
2019-02-10T16:30:36.919Z,4.48
2019-02-10T16:33:05.936Z,4.38
2019-02-10T16:35:34.946Z,4.36
2019-02-10T16:38:03.959Z,4.37
2019-02-10T16:40:33.283Z,4.39
2019-02-10T16:43:02.384Z,4.31
2019-02-10T16:45:31.394Z,4.38
2019-02-10T16:48:00.335Z,4.26
2019-02-10T16:50:29.478Z,4.17
2019-02-10T16:52:58.558Z,4.09
2019-02-10T16:55:27.481Z,4.12
2019-02-10T16:57:56.467Z,4.03
2019-02-10T17:00:25.477Z,3.96
2019-02-10T17:02:54.488Z,3.98
2019-02-10T17:05:24.162Z,3.86
2019-02-10T17:07:53.237Z,3.85
2019-02-10T17:10:22.342Z,3.82
2019-02-10T17:12:51.365Z,3.75
2019-02-10T17:15:20.373Z,3.76
2019-02-10T17:17:49.422Z,3.68
2019-02-10T17:20:18.449Z,3.69
2019-02-10T17:22:47.505Z,3.67
2019-02-10T17:25:16.744Z,3.66
2019-02-10T17:27:45.800Z,3.58
2019-02-10T17:30:15.306Z,3.54
2019-02-10T17:32:44.310Z,3.48
2019-02-10T17:35:13.549Z,3.54
2019-02-10T17:37:42.697Z,3.56
2019-02-10T17:40:18.576Z,3.58
2019-02-10T17:42:50.481Z,3.56
2019-02-10T17:45:19.744Z,3.57
2019-02-10T17:47:48.687Z,3.58
2019-02-10T17:50:17.779Z,3.48
2019-02-10T17:52:46.788Z,3.48
2019-02-10T17:55:15.845Z,3.43
2019-02-10T17:57:47.894Z,3.43
2019-02-10T18:00:17.660Z,3.38
2019-02-10T18:02:46.716Z,3.29
2019-02-10T18:05:15.774Z,3.17
2019-02-10T18:07:45.101Z,3.08
2019-02-10T18:10:14.199Z,3.16
2019-02-10T18:12:43.255Z,3.07
2019-02-10T18:15:30.256Z,3.10
2019-02-10T18:18:18.518Z,3.09
2019-02-10T18:21:03.389Z,3.02
2019-02-10T18:23:50.360Z,3.08
2019-02-10T18:26:30.755Z,3.07
2019-02-10T18:29:23.713Z,3.14
2019-02-10T18:32:10.640Z,3.16
2019-02-10T18:34:58.681Z,3.07
2019-02-10T18:37:38.365Z,3.05
2019-02-10T18:40:21.631Z,3.07
2019-02-10T18:43:15.816Z,3.10
2019-02-10T18:46:03.807Z,3.10
2019-02-10T18:48:48.745Z,3.18
2019-02-10T18:51:35.949Z,3.21
2019-02-10T18:54:15.553Z,3.27
2019-02-10T18:57:06.533Z,3.30
2019-02-10T19:00:07.010Z,3.36
2019-02-10T19:03:00.945Z,3.41
2019-02-10T19:05:37.328Z,3.41
2019-02-10T19:08:24.374Z,3.43
2019-02-10T19:11:07.841Z,3.45
2019-02-10T19:13:51.659Z,3.54
2019-02-10T19:16:39.695Z,3.60
2019-02-10T19:19:19.907Z,3.64
2019-02-10T19:22:19.048Z,3.64
2019-02-10T19:25:07.101Z,3.74
2019-02-10T19:27:54.078Z,3.77
2019-02-10T19:30:46.449Z,3.82
2019-02-10T19:33:33.394Z,3.84
2019-02-10T19:39:03.028Z,3.94
2019-02-10T19:41:36.494Z,3.91
2019-02-10T19:44:31.450Z,3.97
2019-02-10T19:47:19.546Z,4.02
2019-02-10T19:50:10.461Z,4.01
2019-02-10T19:53:07.621Z,4.06
2019-02-10T19:55:55.580Z,4.10
2019-02-10T19:58:42.628Z,4.10
2019-02-10T20:01:32.697Z,4.12
2019-02-10T20:04:08.492Z,4.14
2019-02-10T20:06:56.382Z,4.17
2019-02-10T20:09:47.156Z,4.20
2019-02-10T20:12:30.207Z,4.21
2019-02-10T20:15:07.437Z,4.25
2019-02-10T20:17:50.974Z,4.26
2019-02-10T20:20:42.127Z,4.30
2019-02-10T20:23:42.402Z,4.36
2019-02-10T20:26:26.553Z,4.36
2019-02-10T20:29:13.217Z,4.42
2019-02-10T20:32:01.168Z,4.47
2019-02-10T20:34:47.837Z,4.47
2019-02-10T20:37:42.628Z,4.53
2019-02-10T20:40:21.655Z,4.55
2019-02-10T20:43:15.668Z,4.56
2019-02-10T20:46:16.175Z,4.58
2019-02-10T20:49:02.829Z,4.64
2019-02-10T20:51:57.762Z,4.70
2019-02-10T20:54:44.327Z,4.81
2019-02-10T20:57:18.993Z,4.82
2019-02-10T21:00:19.309Z,4.86
2019-02-10T21:03:01.667Z,4.93
2019-02-10T21:05:49.590Z,5.02
2019-02-10T21:08:42.512Z,5.10
2019-02-10T21:11:33.594Z,5.18
2019-02-10T21:14:17.785Z,5.23
2019-02-10T21:16:53.511Z,5.27
2019-02-10T21:19:57.009Z,5.30
2019-02-10T21:22:36.325Z,5.37
2019-02-10T21:25:18.996Z,5.38
2019-02-10T21:28:00.319Z,5.38
2019-02-10T21:30:43.279Z,5.34
2019-02-10T21:33:21.678Z,5.31
2019-02-10T21:36:21.694Z,5.31
2019-02-10T21:38:57.637Z,5.29
2019-02-10T21:41:33.899Z,5.31
2019-02-10T21:44:20.810Z,5.22
2019-02-10T21:47:00.489Z,5.19
2019-02-10T21:49:29.700Z,5.16
2019-02-10T21:51:58.763Z,5.13
2019-02-10T21:54:28.165Z,5.11
2019-02-10T21:56:57.525Z,5.03
2019-02-10T21:59:26.570Z,4.96
2019-02-10T22:01:55.628Z,4.87
2019-02-10T22:04:24.566Z,4.82
2019-02-10T22:06:53.580Z,4.78
2019-02-10T22:09:22.660Z,4.78
2019-02-10T22:11:51.677Z,4.74
2019-02-10T22:14:20.655Z,4.71
2019-02-10T22:16:49.985Z,4.74
2019-02-10T22:19:18.843Z,4.66
2019-02-10T22:21:47.882Z,4.61
2019-02-10T22:24:16.930Z,4.58
2019-02-10T22:26:45.988Z,4.60
2019-02-10T22:29:14.948Z,4.53
2019-02-10T22:31:43.955Z,4.44
2019-02-10T22:34:13.029Z,4.44
2019-02-10T22:36:42.072Z,4.41
2019-02-10T22:39:11.083Z,4.39
2019-02-10T22:41:40.100Z,4.32
2019-02-10T22:44:09.143Z,4.31
2019-02-10T22:46:38.108Z,4.32
2019-02-10T22:49:07.365Z,4.29
2019-02-10T22:51:36.408Z,4.31
2019-02-10T22:54:05.456Z,4.32
2019-02-10T22:56:34.503Z,4.26
2019-02-10T22:59:03.513Z,4.20
2019-02-10T23:01:32.949Z,4.17
2019-02-10T23:04:01.996Z,4.19
2019-02-10T23:06:31.050Z,4.21
2019-02-10T23:09:00.087Z,4.22
2019-02-10T23:11:29.723Z,4.28
2019-02-10T23:13:58.688Z,4.29
2019-02-10T23:16:27.620Z,4.37
2019-02-10T23:18:56.668Z,4.36
2019-02-10T23:21:25.716Z,4.41
2019-02-10T23:23:54.728Z,4.47
2019-02-10T23:26:23.776Z,4.49
2019-02-10T23:28:53.182Z,4.55
2019-02-10T23:31:22.229Z,4.56
2019-02-10T23:33:51.589Z,4.61
2019-02-10T23:36:20.614Z,4.64
2019-02-10T23:38:49.657Z,4.67
2019-02-10T23:41:18.697Z,4.72
2019-02-10T23:43:48.084Z,4.75
2019-02-10T23:46:17.106Z,4.82
2019-02-10T23:48:46.114Z,4.84
2019-02-10T23:51:15.185Z,4.94
2019-02-10T23:53:44.113Z,4.97
2019-02-10T23:56:13.174Z,5.00
2019-02-10T23:58:42.192Z,5.03
